Time,TemperatureF,DewpointF,PressureIn,WindDirection,WindDirectionDegrees,WindSpeedMPH,WindSpeedGustMPH,Humidity,HourlyPrecipIn,Conditions,Clouds,dailyrainin,SoftwareType,DateUTC
2013-06-21 00:02:00,77.6,68.7,29.97,SSE,148,10.0,10.0,74,0.00,,SKC,0.00,VWS V14.01,2013-06-21 05:02:00,
2013-06-21 00:07:00,77.4,68.9,29.97,SSE,161,7.0,7.0,75,0.00,,SKC,0.00,VWS V14.01,2013-06-21 05:07:00,
2013-06-21 00:12:00,77.2,69.1,29.97,South,179,11.0,12.0,76,0.00,,SKC,0.00,VWS V14.01,2013-06-21 05:12:00,
2013-06-21 00:17:00,76.9,68.8,29.97,South,172,6.0,9.0,76,0.00,,SKC,0.00,VWS V14.01,2013-06-21 05:17:00,
2013-06-21 00:22:00,76.7,68.9,29.96,SSE,168,13.0,13.0,77,0.00,,SKC,0.00,VWS V14.01,2013-06-21 05:22:00,
2013-06-21 00:27:00,76.6,68.9,29.96,SE,142,9.0,12.0,77,0.00,,SKC,0.00,VWS V14.01,2013-06-21 05:27:00,
2013-06-21 00:32:00,76.4,69.0,29.96,SSE,159,7.0,12.0,78,0.00,,SKC,0.00,VWS V14.01,2013-06-21 05:32:00,
2013-06-21 00:37:00,76.2,69.2,29.96,South,180,10.0,13.0,79,0.00,,SKC,0.00,VWS V14.01,2013-06-21 05:37:00,
2013-06-21 00:42:00,76.1,69.5,29.95,South,178,11.0,11.0,80,0.00,,SKC,0.00,VWS V14.01,2013-06-21 05:42:00,
2013-06-21 00:47:00,75.9,69.3,29.96,SSW,197,7.0,12.0,80,0.00,,SKC,0.00,VWS V14.01,2013-06-21 05:47:00,
2013-06-21 00:52:00,75.7,69.5,29.95,SSE,153,8.0,11.0,81,0.00,,SKC,0.00,VWS V14.01,2013-06-21 05:52:00,
2013-06-21 00:57:00,75.6,69.4,29.95,SSE,155,7.0,12.0,81,0.00,,SKC,0.00,VWS V14.01,2013-06-21 05:57:00,
2013-06-21 01:02:00,75.4,69.2,29.95,SSW,193,12.0,12.0,81,0.00,,SKC,0.00,VWS V14.01,2013-06-21 06:02:00,
2013-06-21 01:07:00,75.3,69.4,29.95,SSE,155,4.0,5.0,82,0.00,,SKC,0.00,VWS V14.01,2013-06-21 06:07:00,
2013-06-21 01:12:00,75.1,69.2,29.95,South,186,5.0,7.0,82,0.00,,SKC,0.00,VWS V14.01,2013-06-21 06:12:00,
2013-06-21 01:17:00,75.0,69.1,29.95,South,175,7.0,10.0,82,0.00,,SKC,0.00,VWS V14.01,2013-06-21 06:17:00,
2013-06-21 01:22:00,74.9,69.4,29.94,South,173,10.0,10.0,83,0.00,,SKC,0.00,VWS V14.01,2013-06-21 06:22:00,
2013-06-21 01:27:00,74.8,69.3,29.94,SSE,165,9.0,17.0,83,0.00,,SKC,0.00,VWS V14.01,2013-06-21 06:27:00,
2013-06-21 01:32:00,74.7,69.2,29.95,South,173,11.0,11.0,83,0.00,,SKC,0.00,VWS V14.01,2013-06-21 06:32:00,
2013-06-21 01:37:00,74.5,69.0,29.95,SSE,156,6.0,10.0,83,0.00,,SKC,0.00,VWS V14.01,2013-06-21 06:37:00,
2013-06-21 01:42:00,74.4,68.9,29.94,South,185,12.0,16.0,83,0.00,,SKC,0.00,VWS V14.01,2013-06-21 06:42:00,
2013-06-21 01:47:00,74.3,69.2,29.95,SE,144,10.0,13.0,84,0.00,,SKC,0.00,VWS V14.01,2013-06-21 06:47:00,
2013-06-21 01:52:00,74.2,69.1,29.94,SSE,157,7.0,10.0,84,0.00,,SKC,0.00,VWS V14.01,2013-06-21 06:52:00,
2013-06-21 01:57:00,74.1,69.0,29.94,SSW,197,12.0,14.0,84,0.00,,SKC,0.00,VWS V14.01,2013-06-21 06:57:00,
2013-06-21 02:02:00,74.0,68.9,29.94,SSE,165,6.0,11.0,84,0.00,,SKC,0.00,VWS V14.01,2013-06-21 07:02:00,
2013-06-21 02:07:00,73.9,69.1,29.94,South,175,5.0,9.0,85,0.00,,SKC,0.00,VWS V14.01,2013-06-21 07:07:00,
2013-06-21 02:12:00,73.8,69.0,29.94,South,190,13.0,13.0,85,0.00,,SKC,0.00,VWS V14.01,2013-06-21 07:12:00,
2013-06-21 02:17:00,73.7,68.9,29.94,South,188,8.0,8.0,85,0.00,,SKC,0.00,VWS V14.01,2013-06-21 07:17:00,
2013-06-21 02:22:00,73.7,68.9,29.94,SSW,209,15.0,15.0,85,0.00,,SKC,0.00,VWS V14.01,2013-06-21 07:22:00,
2013-06-21 02:27:00,73.7,68.6,29.94,South,183,12.0,12.0,84,0.00,,SKC,0.00,VWS V14.01,2013-06-21 07:27:00,
2013-06-21 02:32:00,73.7,68.2,29.94,SSE,160,12.0,18.0,83,0.00,,SKC,0.00,VWS V14.01,2013-06-21 07:32:00,
2013-06-21 02:37:00,73.6,68.1,29.94,South,173,9.0,14.0,83,0.00,,SKC,0.00,VWS V14.01,2013-06-21 07:37:00,
2013-06-21 02:42:00,73.6,68.1,29.94,SSE,167,10.0,15.0,83,0.00,,SKC,0.00,VWS V14.01,2013-06-21 07:42:00,
2013-06-21 02:47:00,73.5,68.0,29.94,South,185,13.0,13.0,83,0.00,,SKC,0.00,VWS V14.01,2013-06-21 07:47:00,
2013-06-21 02:52:00,73.4,67.9,29.94,South,191,6.0,12.0,83,0.00,,SKC,0.00,VWS V14.01,2013-06-21 07:52:00,
2013-06-21 02:57:00,73.3,68.2,29.94,South,191,14.0,14.0,84,0.00,,SKC,0.00,VWS V14.01,2013-06-21 07:57:00,
2013-06-21 03:02:00,73.2,68.1,29.94,South,189,9.0,11.0,84,0.00,,SKC,0.00,VWS V14.01,2013-06-21 08:02:00,
2013-06-21 03:07:00,73.1,68.0,29.94,SW,214,9.0,10.0,84,0.00,,SKC,0.00,VWS V14.01,2013-06-21 08:07:00,
2013-06-21 03:12:00,73.1,68.0,29.94,SSW,194,13.0,13.0,84,0.00,,SKC,0.00,VWS V14.01,2013-06-21 08:12:00,
2013-06-21 03:17:00,73.0,67.9,29.94,South,190,7.0,11.0,84,0.00,,SKC,0.00,VWS V14.01,2013-06-21 08:17:00,
2013-06-21 03:22:00,73.0,67.9,29.94,South,184,11.0,11.0,84,0.00,,SKC,0.00,VWS V14.01,2013-06-21 08:22:00,
2013-06-21 03:27:00,72.9,67.8,29.94,South,172,9.0,15.0,84,0.00,,SKC,0.00,VWS V14.01,2013-06-21 08:27:00,
2013-06-21 03:32:00,72.9,67.8,29.93,SSE,168,4.0,9.0,84,0.00,,SKC,0.00,VWS V14.01,2013-06-21 08:32:00,
2013-06-21 03:37:00,72.8,68.0,29.93,SSW,195,14.0,14.0,85,0.00,,SKC,0.00,VWS V14.01,2013-06-21 08:37:00,
2013-06-21 03:42:00,72.8,68.0,29.93,SE,138,10.0,14.0,85,0.00,,SKC,0.00,VWS V14.01,2013-06-21 08:42:00,
2013-06-21 03:47:00,72.7,67.9,29.93,South,182,14.0,16.0,85,0.00,,SKC,0.00,VWS V14.01,2013-06-21 08:47:00,
2013-06-21 03:52:00,72.7,67.9,29.93,SSW,198,6.0,7.0,85,0.00,,SKC,0.00,VWS V14.01,2013-06-21 08:52:00,
2013-06-21 03:57:00,72.7,67.9,29.93,SSW,198,11.0,14.0,85,0.00,,SKC,0.00,VWS V14.01,2013-06-21 08:57:00,
2013-06-21 04:02:00,72.7,67.9,29.93,South,176,6.0,11.0,85,0.00,,SKC,0.00,VWS V14.01,2013-06-21 09:02:00,
2013-06-21 04:07:00,72.7,67.9,29.93,South,176,6.0,9.0,85,0.00,,SKC,0.00,VWS V14.01,2013-06-21 09:07:00,
2013-06-21 04:12:00,72.7,67.9,29.93,SSW,192,12.0,19.0,85,0.00,,SKC,0.00,VWS V14.01,2013-06-21 09:12:00,
2013-06-21 04:17:00,72.6,67.8,29.93,South,173,7.0,10.0,85,0.00,,SKC,0.00,VWS V14.01,2013-06-21 09:17:00,
2013-06-21 04:22:00,72.5,67.7,29.93,SSW,210,15.0,15.0,85,0.00,,SKC,0.00,VWS V14.01,2013-06-21 09:22:00,
2013-06-21 04:27:00,72.4,67.6,29.93,SSE,167,6.0,9.0,85,0.00,,SKC,0.00,VWS V14.01,2013-06-21 09:27:00,
2013-06-21 04:32:00,72.3,67.5,29.93,South,172,7.0,10.0,85,0.00,,SKC,0.00,VWS V14.01,2013-06-21 09:32:00,
2013-06-21 04:37:00,72.3,67.5,29.93,SSE,160,9.0,10.0,85,0.00,,SKC,0.00,VWS V14.01,2013-06-21 09:37:00,
2013-06-21 04:42:00,72.3,67.5,29.93,South,184,7.0,11.0,85,0.00,,SKC,0.00,VWS V14.01,2013-06-21 09:42:00,
2013-06-21 04:47:00,72.2,67.4,29.93,South,178,6.0,10.0,85,0.00,,SKC,0.00,VWS V14.01,2013-06-21 09:47:00,
2013-06-21 04:52:00,72.2,67.4,29.93,South,169,9.0,11.0,85,0.00,,SKC,0.00,VWS V14.01,2013-06-21 09:52:00,
2013-06-21 04:57:00,72.1,67.7,29.93,SSW,192,11.0,11.0,86,0.00,,SKC,0.00,VWS V14.01,2013-06-21 09:57:00,
2013-06-21 05:02:00,71.9,67.5,29.93,SSE,157,9.0,10.0,86,0.00,,SKC,0.00,VWS V14.01,2013-06-21 10:02:00,
2013-06-21 05:07:00,71.9,67.5,29.94,South,178,5.0,12.0,86,0.00,,SKC,0.00,VWS V14.01,2013-06-21 10:07:00,
2013-06-21 05:12:00,71.9,67.5,29.94,South,178,8.0,9.0,86,0.00,,SKC,0.00,VWS V14.01,2013-06-21 10:12:00,
2013-06-21 05:17:00,71.8,67.4,29.94,South,169,9.0,11.0,86,0.00,,SKC,0.00,VWS V14.01,2013-06-21 10:17:00,
2013-06-21 05:22:00,71.7,67.3,29.94,South,175,5.0,9.0,86,0.00,,SKC,0.00,VWS V14.01,2013-06-21 10:22:00,
2013-06-21 05:27:00,71.7,67.3,29.94,South,182,7.0,10.0,86,0.00,,SKC,0.00,VWS V14.01,2013-06-21 10:27:00,
2013-06-21 05:32:00,71.6,67.2,29.93,South,178,8.0,11.0,86,0.00,,SKC,0.00,VWS V14.01,2013-06-21 10:32:00,
2013-06-21 05:37:00,71.5,67.1,29.93,SSW,196,9.0,12.0,86,0.00,,SKC,0.00,VWS V14.01,2013-06-21 10:37:00,
2013-06-21 05:42:00,71.5,67.1,29.93,SSE,167,7.0,11.0,86,0.00,,SKC,0.00,VWS V14.01,2013-06-21 10:42:00,
2013-06-21 05:47:00,71.5,67.1,29.93,South,182,6.0,11.0,86,0.00,,SKC,0.00,VWS V14.01,2013-06-21 10:47:00,
2013-06-21 05:52:00,71.4,67.0,29.94,SSW,199,13.0,14.0,86,0.00,,SKC,0.00,VWS V14.01,2013-06-21 10:52:00,
2013-06-21 05:57:00,71.4,67.0,29.94,South,170,9.0,13.0,86,0.00,,SKC,0.00,VWS V14.01,2013-06-21 10:57:00,
2013-06-21 06:02:00,71.4,67.0,29.94,South,170,9.0,10.0,86,0.00,,SKC,0.00,VWS V14.01,2013-06-21 11:02:00,
2013-06-21 06:07:00,71.4,67.0,29.94,SSW,192,19.0,19.0,86,0.00,,SKC,0.00,VWS V14.01,2013-06-21 11:07:00,
2013-06-21 06:12:00,71.5,66.8,29.94,South,186,7.0,11.0,85,0.00,,SKC,0.00,VWS V14.01,2013-06-21 11:12:00,
2013-06-21 06:17:00,71.5,66.8,29.94,South,180,5.0,10.0,85,0.00,,SKC,0.00,VWS V14.01,2013-06-21 11:17:00,
2013-06-21 06:22:00,71.4,66.7,29.95,SSW,198,10.0,10.0,85,0.00,,SKC,0.00,VWS V14.01,2013-06-21 11:22:00,
2013-06-21 06:27:00,71.5,66.8,29.95,South,183,9.0,13.0,85,0.00,,SKC,0.00,VWS V14.01,2013-06-21 11:27:00,
2013-06-21 06:32:00,71.6,66.9,29.95,South,175,13.0,15.0,85,0.00,,SKC,0.00,VWS V14.01,2013-06-21 11:32:00,
2013-06-21 06:37:00,71.7,66.9,29.95,South,186,5.0,11.0,85,0.00,,SKC,0.00,VWS V14.01,2013-06-21 11:37:00,
2013-06-21 06:42:00,71.7,66.9,29.95,SSW,192,10.0,14.0,85,0.00,,SKC,0.00,VWS V14.01,2013-06-21 11:42:00,
2013-06-21 06:47:00,71.7,66.9,29.95,South,173,8.0,11.0,85,0.00,,SKC,0.00,VWS V14.01,2013-06-21 11:47:00,
2013-06-21 06:52:00,71.8,67.1,29.95,South,172,5.0,8.0,85,0.00,,SKC,0.00,VWS V14.01,2013-06-21 11:52:00,
2013-06-21 06:57:00,71.7,66.9,29.95,SSW,206,13.0,13.0,85,0.00,,SKC,0.00,VWS V14.01,2013-06-21 11:57:00,
2013-06-21 07:02:00,71.8,67.1,29.95,SSW,197,10.0,10.0,85,0.00,,SKC,0.00,VWS V14.01,2013-06-21 12:02:00,
2013-06-21 07:07:00,71.8,67.1,29.95,South,179,4.0,9.0,85,0.00,,SKC,0.00,VWS V14.01,2013-06-21 12:07:00,
2013-06-21 07:12:00,71.8,67.1,29.95,SSW,202,4.0,6.0,85,0.00,,SKC,0.00,VWS V14.01,2013-06-21 12:12:00,
2013-06-21 07:17:00,71.7,66.9,29.96,SSW,199,5.0,7.0,85,0.00,,SKC,0.00,VWS V14.01,2013-06-21 12:17:00,
2013-06-21 07:22:00,71.7,66.9,29.96,South,181,5.0,12.0,85,0.00,,SKC,0.00,VWS V14.01,2013-06-21 12:22:00,
2013-06-21 07:27:00,71.7,66.9,29.96,SSE,164,9.0,13.0,85,0.00,,SKC,0.00,VWS V14.01,2013-06-21 12:27:00,
2013-06-21 07:32:00,71.7,66.9,29.96,South,186,7.0,11.0,85,0.00,,SKC,0.00,VWS V14.01,2013-06-21 12:32:00,
2013-06-21 07:37:00,71.7,66.9,29.97,SSE,148,5.0,9.0,85,0.00,,SKC,0.00,VWS V14.01,2013-06-21 12:37:00,
2013-06-21 07:42:00,71.7,66.9,29.97,South,188,5.0,10.0,85,0.00,,SKC,0.00,VWS V14.01,2013-06-21 12:42:00,
2013-06-21 07:47:00,71.8,67.1,29.97,SSW,199,11.0,13.0,85,0.00,,SKC,0.00,VWS V14.01,2013-06-21 12:47:00,
2013-06-21 07:52:00,71.9,67.2,29.98,South,186,5.0,12.0,85,0.00,,SKC,0.00,VWS V14.01,2013-06-21 12:52:00,
2013-06-21 07:57:00,72.0,67.2,29.98,SSE,157,6.0,9.0,85,0.00,,SKC,0.00,VWS V14.01,2013-06-21 12:57:00,
2013-06-21 08:02:00,72.1,67.3,29.98,SSE,150,4.0,10.0,85,0.00,,SKC,0.00,VWS V14.01,2013-06-21 13:02:00,
2013-06-21 08:07:00,72.3,67.2,29.98,South,186,4.0,9.0,84,0.00,,SKC,0.00,VWS V14.01,2013-06-21 13:07:00,
2013-06-21 08:12:00,72.6,67.5,29.98,SSW,202,13.0,17.0,84,0.00,,SKC,0.00,VWS V14.01,2013-06-21 13:12:00,
2013-06-21 08:17:00,73.0,67.5,29.97,South,188,11.0,12.0,83,0.00,,SKC,0.00,VWS V14.01,2013-06-21 13:17:00,
2013-06-21 08:22:00,73.4,67.6,29.97,South,188,10.0,16.0,82,0.00,,SKC,0.00,VWS V14.01,2013-06-21 13:22:00,
2013-06-21 08:27:00,73.7,67.5,29.98,South,185,9.0,10.0,81,0.00,,SKC,0.00,VWS V14.01,2013-06-21 13:27:00,
2013-06-21 08:32:00,74.0,67.4,29.98,SE,142,9.0,15.0,80,0.00,,SKC,0.00,VWS V14.01,2013-06-21 13:32:00,
2013-06-21 08:38:00,74.5,67.9,29.98,SSE,161,7.0,13.0,80,0.00,,SKC,0.00,VWS V14.01,2013-06-21 13:38:00,
2013-06-21 08:43:00,74.4,67.8,29.98,SSE,149,8.0,13.0,80,0.00,,SKC,0.00,VWS V14.01,2013-06-21 13:43:00,
2013-06-21 08:48:00,74.5,67.6,29.98,South,184,14.0,16.0,79,0.00,,SKC,0.00,VWS V14.01,2013-06-21 13:48:00,
2013-06-21 08:53:00,74.8,67.9,29.98,SSW,195,11.0,11.0,79,0.00,,SKC,0.00,VWS V14.01,2013-06-21 13:53:00,
2013-06-21 08:58:00,74.9,67.6,29.98,SSW,196,13.0,13.0,78,0.00,,SKC,0.00,VWS V14.01,2013-06-21 13:58:00,
2013-06-21 09:03:00,74.7,67.4,29.98,SSW,206,15.0,15.0,78,0.00,,SKC,0.00,VWS V14.01,2013-06-21 14:03:00,
2013-06-21 09:08:00,74.6,67.3,29.98,SSW,202,12.0,15.0,78,0.00,,SKC,0.00,VWS V14.01,2013-06-21 14:08:00,
2013-06-21 09:13:00,75.1,67.8,29.99,SSW,199,12.0,12.0,78,0.00,,SKC,0.00,VWS V14.01,2013-06-21 14:13:00,
2013-06-21 09:18:00,75.6,67.9,29.98,SSE,154,13.0,13.0,77,0.00,,SKC,0.00,VWS V14.01,2013-06-21 14:18:00,
2013-06-21 09:23:00,76.0,67.9,29.98,SSW,194,10.0,18.0,76,0.00,,SKC,0.00,VWS V14.01,2013-06-21 14:23:00,
2013-06-21 09:28:00,76.1,68.4,29.98,South,171,9.0,15.0,77,0.00,,SKC,0.00,VWS V14.01,2013-06-21 14:28:00,
2013-06-21 09:33:00,76.6,68.5,29.98,SW,215,6.0,16.0,76,0.00,,SKC,0.00,VWS V14.01,2013-06-21 14:33:00,
2013-06-21 09:38:00,76.0,67.9,29.98,SSW,197,5.0,14.0,76,0.00,,SKC,0.00,VWS V14.01,2013-06-21 14:38:00,
2013-06-21 09:43:00,75.7,68.4,29.98,SSW,207,10.0,15.0,78,0.00,,SKC,0.00,VWS V14.01,2013-06-21 14:43:00,
2013-06-21 09:48:00,76.1,68.0,29.98,SSW,196,15.0,20.0,76,0.00,,SKC,0.00,VWS V14.01,2013-06-21 14:48:00,
2013-06-21 09:53:00,76.4,68.3,29.98,SSW,198,10.0,18.0,76,0.00,,SKC,0.00,VWS V14.01,2013-06-21 14:53:00,
2013-06-21 09:58:00,76.1,68.0,29.98,SSW,211,14.0,15.0,76,0.00,,SKC,0.00,VWS V14.01,2013-06-21 14:58:00,
2013-06-21 10:03:00,76.0,67.9,29.99,SSW,198,12.0,13.0,76,0.00,,SKC,0.00,VWS V14.01,2013-06-21 15:03:00,
2013-06-21 10:08:00,76.2,67.7,29.99,SSE,157,13.0,15.0,75,0.00,,SKC,0.00,VWS V14.01,2013-06-21 15:08:00,
2013-06-21 10:14:00,76.2,67.7,29.99,South,187,12.0,20.0,75,0.00,,SKC,0.00,VWS V14.01,2013-06-21 15:14:00,
2013-06-21 10:18:00,76.4,67.9,29.99,South,186,6.0,6.0,75,0.00,,SKC,0.00,VWS V14.01,2013-06-21 15:18:00,
2013-06-21 10:23:00,76.8,68.3,29.99,South,180,14.0,15.0,75,0.00,,SKC,0.00,VWS V14.01,2013-06-21 15:23:00,
2013-06-21 10:29:00,77.5,68.2,29.99,SSW,192,9.0,15.0,73,0.00,,SKC,0.00,VWS V14.01,2013-06-21 15:29:00,
2013-06-21 10:34:00,78.4,67.8,29.99,South,176,11.0,13.0,70,0.00,,SKC,0.00,VWS V14.01,2013-06-21 15:34:00,
2013-06-21 10:39:00,79.1,68.1,29.98,SSE,165,14.0,19.0,69,0.00,,SKC,0.00,VWS V14.01,2013-06-21 15:39:00,
2013-06-21 10:43:00,79.6,67.7,29.98,South,191,21.0,21.0,67,0.00,,SKC,0.00,VWS V14.01,2013-06-21 15:43:00,
2013-06-21 10:49:00,79.9,67.5,29.99,South,190,14.0,14.0,66,0.00,,SKC,0.00,VWS V14.01,2013-06-21 15:49:00,
2013-06-21 10:54:00,80.2,68.3,29.99,SSW,194,11.0,13.0,67,0.00,,SKC,0.00,VWS V14.01,2013-06-21 15:54:00,
2013-06-21 10:59:00,79.8,67.4,29.99,South,182,10.0,13.0,66,0.00,,SKC,0.00,VWS V14.01,2013-06-21 15:59:00,
2013-06-21 11:03:00,79.8,68.3,29.99,SSW,207,8.0,10.0,68,0.00,,SKC,0.00,VWS V14.01,2013-06-21 16:03:00,
2013-06-21 11:08:00,80.7,67.4,29.99,South,179,10.0,10.0,64,0.00,,SKC,0.00,VWS V14.01,2013-06-21 16:08:00,
2013-06-21 11:13:00,80.6,66.8,29.99,SSW,209,14.0,14.0,63,0.00,,SKC,0.00,VWS V14.01,2013-06-21 16:13:00,
2013-06-21 11:19:00,80.9,66.7,29.99,SSW,200,18.0,19.0,62,0.00,,SKC,0.00,VWS V14.01,2013-06-21 16:19:00,
2013-06-21 11:24:00,81.4,67.1,29.98,SSE,148,16.0,16.0,62,0.00,,SKC,0.00,VWS V14.01,2013-06-21 16:24:00,
2013-06-21 11:29:00,82.1,66.8,29.99,South,173,10.0,10.0,60,0.00,,SKC,0.00,VWS V14.01,2013-06-21 16:29:00,
2013-06-21 11:34:00,82.3,67.5,29.99,SSW,211,12.0,15.0,61,0.00,,SKC,0.00,VWS V14.01,2013-06-21 16:34:00,
2013-06-21 11:39:00,82.7,66.9,29.99,South,175,11.0,11.0,59,0.00,,SKC,0.00,VWS V14.01,2013-06-21 16:39:00,
2013-06-21 11:44:00,82.5,67.2,29.99,South,184,11.0,11.0,60,0.00,,SKC,0.00,VWS V14.01,2013-06-21 16:44:00,
2013-06-21 11:49:00,82.4,67.1,29.98,South,190,19.0,19.0,60,0.00,,SKC,0.00,VWS V14.01,2013-06-21 16:49:00,
2013-06-21 11:54:00,82.9,67.6,29.99,SSW,196,13.0,13.0,60,0.00,,SKC,0.00,VWS V14.01,2013-06-21 16:54:00,
2013-06-21 11:58:00,83.6,66.8,29.99,SSW,203,12.0,13.0,57,0.00,,SKC,0.00,VWS V14.01,2013-06-21 16:58:00,
2013-06-21 12:04:00,83.6,67.3,29.98,South,170,11.0,11.0,58,0.00,,SKC,0.00,VWS V14.01,2013-06-21 17:04:00,
2013-06-21 12:09:00,83.1,67.8,29.99,South,178,5.0,13.0,60,0.00,,SKC,0.00,VWS V14.01,2013-06-21 17:09:00,
2013-06-21 12:15:00,83.6,67.8,29.99,SSW,193,10.0,16.0,59,0.00,,SKC,0.00,VWS V14.01,2013-06-21 17:15:00,
2013-06-21 12:20:00,83.6,67.8,29.98,South,169,14.0,14.0,59,0.00,,SKC,0.00,VWS V14.01,2013-06-21 17:20:00,
2013-06-21 12:25:00,83.6,67.3,29.98,South,175,13.0,13.0,58,0.00,,SKC,0.00,VWS V14.01,2013-06-21 17:25:00,
2013-06-21 12:30:00,84.0,67.1,29.98,SSW,197,5.0,11.0,57,0.00,,SKC,0.00,VWS V14.01,2013-06-21 17:30:00,
2013-06-21 12:35:00,84.7,66.8,29.97,SSW,209,19.0,24.0,55,0.00,,SKC,0.00,VWS V14.01,2013-06-21 17:35:00,
2013-06-21 12:40:00,84.1,66.2,29.97,South,178,19.0,19.0,55,0.00,,SKC,0.00,VWS V14.01,2013-06-21 17:40:00,
2013-06-21 12:45:00,85.2,67.2,29.98,SE,145,7.0,13.0,55,0.00,,SKC,0.00,VWS V14.01,2013-06-21 17:45:00,
2013-06-21 12:46:00,85.2,67.2,29.98,SSW,205,9.0,13.0,55,0.00,,SKC,0.00,VWS V14.01,2013-06-21 17:46:00,
2013-06-21 12:51:00,85.6,67.1,29.98,SSE,157,15.0,17.0,54,0.00,,SKC,0.00,VWS V14.01,2013-06-21 17:51:00,
2013-06-21 12:56:00,85.3,66.2,29.97,South,169,10.0,21.0,53,0.00,,SKC,0.00,VWS V14.01,2013-06-21 17:56:00,
2013-06-21 13:01:00,85.7,66.6,29.97,SSW,205,15.0,18.0,53,0.00,,SKC,0.00,VWS V14.01,2013-06-21 18:01:00,
2013-06-21 13:06:00,85.4,65.8,29.97,SSW,198,11.0,18.0,52,0.00,,SKC,0.00,VWS V14.01,2013-06-21 18:06:00,
2013-06-21 13:11:00,85.9,66.2,29.97,South,174,6.0,14.0,52,0.00,,SKC,0.00,VWS V14.01,2013-06-21 18:11:00,
2013-06-21 13:16:00,86.5,66.8,29.97,South,188,13.0,13.0,52,0.00,,SKC,0.00,VWS V14.01,2013-06-21 18:16:00,
2013-06-21 13:22:00,87.0,65.6,29.96,SSW,200,18.0,22.0,49,0.00,,SKC,0.00,VWS V14.01,2013-06-21 18:22:00,
2013-06-21 13:23:00,86.9,66.0,29.97,SSW,197,9.0,14.0,50,0.00,,SKC,0.00,VWS V14.01,2013-06-21 18:23:00,
2013-06-21 13:24:00,87.1,66.2,29.97,SSW,197,9.0,12.0,50,0.00,,SKC,0.00,VWS V14.01,2013-06-21 18:24:00,
2013-06-21 13:29:00,87.1,66.2,29.96,South,181,18.0,23.0,50,0.00,,SKC,0.00,VWS V14.01,2013-06-21 18:29:00,
2013-06-21 13:34:00,86.8,65.4,29.96,SSE,167,15.0,19.0,49,0.00,,SKC,0.00,VWS V14.01,2013-06-21 18:34:00,
2013-06-21 13:39:00,86.6,65.2,29.96,SE,146,13.0,24.0,49,0.00,,SKC,0.00,VWS V14.01,2013-06-21 18:39:00,
2013-06-21 13:44:00,87.1,65.6,29.96,SSW,209,18.0,22.0,49,0.00,,SKC,0.00,VWS V14.01,2013-06-21 18:44:00,
2013-06-21 13:45:00,87.0,65.6,29.96,SSW,196,12.0,25.0,49,0.00,,SKC,0.00,VWS V14.01,2013-06-21 18:45:00,
2013-06-21 13:47:00,86.8,65.9,29.96,South,179,9.0,12.0,50,0.00,,SKC,0.00,VWS V14.01,2013-06-21 18:47:00,
2013-06-21 13:52:00,87.1,66.2,29.96,SW,226,7.0,18.0,50,0.00,,SKC,0.00,VWS V14.01,2013-06-21 18:52:00,
2013-06-21 13:57:00,87.1,65.6,29.95,South,181,13.0,15.0,49,0.00,,SKC,0.00,VWS V14.01,2013-06-21 18:57:00,
2013-06-21 14:02:00,87.4,65.3,29.95,SSE,161,14.0,15.0,48,0.00,,SKC,0.00,VWS V14.01,2013-06-21 19:02:00,
2013-06-21 14:07:00,87.0,65.0,29.96,SSW,193,6.0,13.0,48,0.00,,SKC,0.00,VWS V14.01,2013-06-21 19:07:00,
2013-06-21 14:12:00,87.5,65.4,29.95,South,169,12.0,19.0,48,0.00,,SKC,0.00,VWS V14.01,2013-06-21 19:12:00,
2013-06-21 14:17:00,87.9,65.8,29.95,SSE,159,7.0,15.0,48,0.00,,SKC,0.00,VWS V14.01,2013-06-21 19:17:00,
2013-06-21 14:20:00,88.3,66.7,29.95,SSE,157,12.0,14.0,49,0.00,,SKC,0.00,VWS V14.01,2013-06-21 19:20:00,
2013-06-21 14:25:00,88.3,65.5,29.95,SSW,195,17.0,24.0,47,0.00,,SKC,0.00,VWS V14.01,2013-06-21 19:25:00,
2013-06-21 14:30:00,87.9,65.2,29.95,SSE,164,15.0,17.0,47,0.00,,SKC,0.00,VWS V14.01,2013-06-21 19:30:00,
2013-06-21 14:35:00,88.3,64.3,29.95,South,173,10.0,17.0,45,0.00,,SKC,0.00,VWS V14.01,2013-06-21 19:35:00,
2013-06-21 14:40:00,88.1,65.3,29.95,SSW,200,13.0,13.0,47,0.00,,SKC,0.00,VWS V14.01,2013-06-21 19:40:00,
2013-06-21 14:42:00,87.8,65.1,29.95,South,180,12.0,16.0,47,0.00,,SKC,0.00,VWS V14.01,2013-06-21 19:42:00,
2013-06-21 14:47:00,87.8,64.5,29.95,SSE,157,17.0,20.0,46,0.00,,SKC,0.00,VWS V14.01,2013-06-21 19:47:00,
2013-06-21 14:52:00,87.5,64.2,29.95,South,176,9.0,19.0,46,0.00,,SKC,0.00,VWS V14.01,2013-06-21 19:52:00,
2013-06-21 14:58:00,88.0,65.3,29.95,SSW,203,16.0,17.0,47,0.00,,SKC,0.00,VWS V14.01,2013-06-21 19:58:00,
2013-06-21 15:03:00,89.0,64.9,29.95,South,171,9.0,17.0,45,0.00,,SKC,0.00,VWS V14.01,2013-06-21 20:03:00,
2013-06-21 15:04:00,88.9,64.8,29.95,SSW,199,15.0,15.0,45,0.00,,SKC,0.00,VWS V14.01,2013-06-21 20:04:00,
2013-06-21 15:09:00,88.0,63.4,29.95,SSE,166,15.0,20.0,44,0.00,,SKC,0.00,VWS V14.01,2013-06-21 20:09:00,
2013-06-21 15:11:00,88.1,63.5,29.95,SSW,206,12.0,18.0,44,0.00,,SKC,0.00,VWS V14.01,2013-06-21 20:11:00,
2013-06-21 15:14:00,88.7,64.0,29.94,SSW,200,11.0,22.0,44,0.00,,SKC,0.00,VWS V14.01,2013-06-21 20:14:00,
2013-06-21 15:19:00,88.7,64.0,29.94,SSW,196,17.0,20.0,44,0.00,,SKC,0.00,VWS V14.01,2013-06-21 20:19:00,
2013-06-21 15:24:00,89.0,64.3,29.94,South,187,13.0,17.0,44,0.00,,SKC,0.00,VWS V14.01,2013-06-21 20:24:00,
2013-06-21 15:29:00,89.0,63.6,29.94,SSW,207,17.0,24.0,43,0.00,,SKC,0.00,VWS V14.01,2013-06-21 20:29:00,
2013-06-21 15:34:00,89.0,63.6,29.94,SSW,199,19.0,19.0,43,0.00,,SKC,0.00,VWS V14.01,2013-06-21 20:34:00,
2013-06-21 15:39:00,89.2,64.5,29.94,SSE,155,11.0,17.0,44,0.00,,SKC,0.00,VWS V14.01,2013-06-21 20:39:00,
2013-06-21 15:44:00,88.6,62.6,29.94,South,186,17.0,21.0,42,0.00,,SKC,0.00,VWS V14.01,2013-06-21 20:44:00,
2013-06-21 15:49:00,88.2,63.6,29.94,South,175,9.0,20.0,44,0.00,,SKC,0.00,VWS V14.01,2013-06-21 20:49:00,
2013-06-21 15:54:00,88.9,62.9,29.93,WSW,255,10.0,23.0,42,0.00,,SKC,0.00,VWS V14.01,2013-06-21 20:54:00,
2013-06-21 15:59:00,89.3,63.9,29.93,SSW,199,13.0,23.0,43,0.00,,SKC,0.00,VWS V14.01,2013-06-21 20:59:00,
2013-06-21 16:04:00,88.9,62.2,29.93,SSW,199,17.0,23.0,41,0.00,,SKC,0.00,VWS V14.01,2013-06-21 21:04:00,
2013-06-21 16:09:00,89.0,62.3,29.93,South,173,13.0,19.0,41,0.00,,SKC,0.00,VWS V14.01,2013-06-21 21:09:00,
2013-06-21 16:14:00,89.1,62.4,29.93,South,190,11.0,20.0,41,0.00,,SKC,0.00,VWS V14.01,2013-06-21 21:14:00,
2013-06-21 16:19:00,89.3,63.2,29.92,SSE,159,18.0,18.0,42,0.00,,SKC,0.00,VWS V14.01,2013-06-21 21:19:00,
2013-06-21 16:24:00,89.4,62.6,29.93,South,178,9.0,15.0,41,0.00,,SKC,0.00,VWS V14.01,2013-06-21 21:24:00,
2013-06-21 16:29:00,88.8,62.8,29.93,SSW,192,13.0,14.0,42,0.00,,SKC,0.00,VWS V14.01,2013-06-21 21:29:00,
2013-06-21 16:34:00,89.2,63.1,29.93,South,178,9.0,16.0,42,0.00,,SKC,0.00,VWS V14.01,2013-06-21 21:34:00,
2013-06-21 16:39:00,88.7,63.3,29.93,SSE,161,13.0,18.0,43,0.00,,SKC,0.00,VWS V14.01,2013-06-21 21:39:00,
2013-06-21 16:44:00,87.9,63.3,29.93,SSW,195,15.0,15.0,44,0.00,,SKC,0.00,VWS V14.01,2013-06-21 21:44:00,
2013-06-21 16:49:00,88.3,63.7,29.92,South,187,9.0,15.0,44,0.00,,SKC,0.00,VWS V14.01,2013-06-21 21:49:00,
2013-06-21 16:54:00,88.4,63.1,29.92,South,188,9.0,13.0,43,0.00,,SKC,0.00,VWS V14.01,2013-06-21 21:54:00,
2013-06-21 16:59:00,88.7,64.7,29.92,SSW,196,14.0,14.0,45,0.00,,SKC,0.00,VWS V14.01,2013-06-21 21:59:00,
2013-06-21 17:04:00,88.8,64.7,29.92,SSW,207,13.0,13.0,45,0.00,,SKC,0.00,VWS V14.01,2013-06-21 22:04:00,
2013-06-21 17:09:00,88.4,63.7,29.92,SE,146,9.0,16.0,44,0.00,,SKC,0.00,VWS V14.01,2013-06-21 22:09:00,
2013-06-21 17:14:00,88.1,63.5,29.92,SSE,155,10.0,18.0,44,0.00,,SKC,0.00,VWS V14.01,2013-06-21 22:14:00,
2013-06-21 17:19:00,88.6,64.6,29.91,SSE,165,18.0,19.0,45,0.00,,SKC,0.00,VWS V14.01,2013-06-21 22:19:00,
2013-06-21 17:24:00,88.1,64.1,29.91,SSE,168,15.0,15.0,45,0.00,,SKC,0.00,VWS V14.01,2013-06-21 22:24:00,
2013-06-21 17:29:00,88.8,62.8,29.90,SSW,211,11.0,16.0,42,0.00,,SKC,0.00,VWS V14.01,2013-06-21 22:29:00,
2013-06-21 17:34:00,89.1,63.7,29.90,South,171,12.0,19.0,43,0.00,,SKC,0.00,VWS V14.01,2013-06-21 22:34:00,
2013-06-21 17:39:00,88.6,62.6,29.90,SSE,163,11.0,19.0,42,0.00,,SKC,0.00,VWS V14.01,2013-06-21 22:39:00,
2013-06-21 17:44:00,88.8,62.8,29.90,South,180,11.0,19.0,42,0.00,,SKC,0.00,VWS V14.01,2013-06-21 22:44:00,
2013-06-21 17:49:00,87.6,62.4,29.90,SSW,198,14.0,14.0,43,0.00,,SKC,0.00,VWS V14.01,2013-06-21 22:49:00,
2013-06-21 17:54:00,87.4,63.5,29.90,SSE,168,10.0,10.0,45,0.00,,SKC,0.00,VWS V14.01,2013-06-21 22:54:00,
2013-06-21 17:59:00,88.2,63.6,29.90,South,179,12.0,15.0,44,0.00,,SKC,0.00,VWS V14.01,2013-06-21 22:59:00,
2013-06-21 18:04:00,88.4,64.4,29.90,South,169,4.0,13.0,45,0.00,,SKC,0.00,VWS V14.01,2013-06-21 23:04:00,
2013-06-21 18:09:00,88.5,63.8,29.90,SSE,167,7.0,16.0,44,0.00,,SKC,0.00,VWS V14.01,2013-06-21 23:09:00,
2013-06-21 18:14:00,88.1,64.1,29.90,South,175,11.0,20.0,45,0.00,,SKC,0.00,VWS V14.01,2013-06-21 23:14:00,
2013-06-21 18:19:00,87.8,63.2,29.89,SSE,150,13.0,19.0,44,0.00,,SKC,0.00,VWS V14.01,2013-06-21 23:19:00,
2013-06-21 18:24:00,87.6,63.0,29.89,South,184,12.0,21.0,44,0.00,,SKC,0.00,VWS V14.01,2013-06-21 23:24:00,
2013-06-21 18:29:00,87.4,62.8,29.89,SSE,148,5.0,15.0,44,0.00,,SKC,0.00,VWS V14.01,2013-06-21 23:29:00,
2013-06-21 18:34:00,87.3,63.4,29.89,South,175,14.0,24.0,45,0.00,,SKC,0.00,VWS V14.01,2013-06-21 23:34:00,
2013-06-21 18:39:00,86.9,63.0,29.89,SSE,165,7.0,23.0,45,0.00,,SKC,0.00,VWS V14.01,2013-06-21 23:39:00,
2013-06-21 18:44:00,87.2,63.9,29.89,SSE,147,6.0,11.0,46,0.00,,SKC,0.00,VWS V14.01,2013-06-21 23:44:00,
2013-06-21 18:49:00,87.1,63.8,29.89,South,176,8.0,12.0,46,0.00,,SKC,0.00,VWS V14.01,2013-06-21 23:49:00,
2013-06-21 18:54:00,86.9,63.7,29.89,SE,133,16.0,19.0,46,0.00,,SKC,0.00,VWS V14.01,2013-06-21 23:54:00,
2013-06-21 18:59:00,86.8,63.6,29.89,SSE,157,9.0,11.0,46,0.00,,SKC,0.00,VWS V14.01,2013-06-21 23:59:00,
2013-06-21 19:04:00,86.8,62.9,29.89,South,182,14.0,16.0,45,0.00,,SKC,0.00,VWS V14.01,2013-06-22 00:04:00,
2013-06-21 19:09:00,86.4,62.6,29.89,SSE,168,4.0,16.0,45,0.00,,SKC,0.00,VWS V14.01,2013-06-22 00:09:00,
2013-06-21 19:14:00,86.4,61.9,29.89,SE,145,6.0,15.0,44,0.00,,SKC,0.00,VWS V14.01,2013-06-22 00:14:00,
2013-06-21 19:19:00,86.4,61.9,29.89,South,176,12.0,20.0,44,0.00,,SKC,0.00,VWS V14.01,2013-06-22 00:19:00,
2013-06-21 19:24:00,86.2,62.4,29.89,South,180,11.0,18.0,45,0.00,,SKC,0.00,VWS V14.01,2013-06-22 00:24:00,
2013-06-21 19:29:00,86.1,62.9,29.89,SSW,195,7.0,7.0,46,0.00,,SKC,0.00,VWS V14.01,2013-06-22 00:29:00,
2013-06-21 19:34:00,85.9,62.1,29.89,South,178,10.0,12.0,45,0.00,,SKC,0.00,VWS V14.01,2013-06-22 00:34:00,
2013-06-21 19:39:00,85.8,62.0,29.89,SE,136,7.0,9.0,45,0.00,,SKC,0.00,VWS V14.01,2013-06-22 00:39:00,
2013-06-21 19:44:00,85.7,61.9,29.89,SSW,194,11.0,11.0,45,0.00,,SKC,0.00,VWS V14.01,2013-06-22 00:44:00,
2013-06-21 19:49:00,85.6,61.8,29.89,SE,144,7.0,12.0,45,0.00,,SKC,0.00,VWS V14.01,2013-06-22 00:49:00,
2013-06-21 19:54:00,85.4,61.7,29.89,South,181,16.0,16.0,45,0.00,,SKC,0.00,VWS V14.01,2013-06-22 00:54:00,
2013-06-21 19:59:00,85.2,60.8,29.89,South,170,13.0,18.0,44,0.00,,SKC,0.00,VWS V14.01,2013-06-22 00:59:00,
2013-06-21 20:04:00,85.0,61.3,29.89,SSE,165,7.0,10.0,45,0.00,,SKC,0.00,VWS V14.01,2013-06-22 01:04:00,
2013-06-21 20:09:00,84.8,60.5,29.89,South,172,14.0,24.0,44,0.00,,SKC,0.00,VWS V14.01,2013-06-22 01:09:00,
2013-06-21 20:14:00,84.7,61.0,29.89,South,190,12.0,12.0,45,0.00,,SKC,0.00,VWS V14.01,2013-06-22 01:14:00,
2013-06-21 20:19:00,84.5,60.8,29.90,South,178,10.0,10.0,45,0.00,,SKC,0.00,VWS V14.01,2013-06-22 01:19:00,
2013-06-21 20:24:00,84.3,61.3,29.90,SE,128,10.0,10.0,46,0.00,,SKC,0.00,VWS V14.01,2013-06-22 01:24:00,
2013-06-21 20:29:00,84.1,61.7,29.90,SE,134,6.0,7.0,47,0.00,,SKC,0.00,VWS V14.01,2013-06-22 01:29:00,
2013-06-21 20:34:00,83.8,61.4,29.90,South,177,8.0,10.0,47,0.00,,SKC,0.00,VWS V14.01,2013-06-22 01:34:00,
2013-06-21 20:39:00,83.7,62.5,29.90,South,171,7.0,11.0,49,0.00,,SKC,0.00,VWS V14.01,2013-06-22 01:39:00,
2013-06-21 20:44:00,83.4,62.8,29.90,SSE,165,8.0,12.0,50,0.00,,SKC,0.00,VWS V14.01,2013-06-22 01:44:00,
2013-06-21 20:49:00,83.5,63.5,29.89,SSE,165,5.0,8.0,51,0.00,,SKC,0.00,VWS V14.01,2013-06-22 01:49:00,
2013-06-21 20:54:00,83.4,63.4,29.89,SSE,147,7.0,15.0,51,0.00,,SKC,0.00,VWS V14.01,2013-06-22 01:54:00,
2013-06-21 20:59:00,83.2,63.8,29.89,SSE,163,6.0,11.0,52,0.00,,SKC,0.00,VWS V14.01,2013-06-22 01:59:00,
2013-06-21 21:04:00,82.9,63.5,29.89,South,173,9.0,13.0,52,0.00,,SKC,0.00,VWS V14.01,2013-06-22 02:04:00,
2013-06-21 21:09:00,82.9,63.5,29.89,SE,145,5.0,12.0,52,0.00,,SKC,0.00,VWS V14.01,2013-06-22 02:09:00,
2013-06-21 21:14:00,82.7,63.3,29.89,SSE,160,5.0,11.0,52,0.00,,SKC,0.00,VWS V14.01,2013-06-22 02:14:00,
2013-06-21 21:19:00,82.5,63.7,29.89,South,170,9.0,9.0,53,0.00,,SKC,0.00,VWS V14.01,2013-06-22 02:19:00,
2013-06-21 21:24:00,82.3,63.5,29.89,South,173,6.0,12.0,53,0.00,,SKC,0.00,VWS V14.01,2013-06-22 02:24:00,
2013-06-21 21:29:00,82.1,63.3,29.90,SSE,153,7.0,7.0,53,0.00,,SKC,0.00,VWS V14.01,2013-06-22 02:29:00,
2013-06-21 21:34:00,81.9,63.6,29.90,SE,136,7.0,11.0,54,0.00,,SKC,0.00,VWS V14.01,2013-06-22 02:34:00,
2013-06-21 21:39:00,81.8,63.5,29.90,SSE,158,6.0,11.0,54,0.00,,SKC,0.00,VWS V14.01,2013-06-22 02:39:00,
2013-06-21 21:44:00,81.6,63.4,29.90,SSE,150,6.0,6.0,54,0.00,,SKC,0.00,VWS V14.01,2013-06-22 02:44:00,
2013-06-21 21:49:00,81.4,63.2,29.90,SE,144,6.0,9.0,54,0.00,,SKC,0.00,VWS V14.01,2013-06-22 02:49:00,
2013-06-21 21:54:00,81.2,63.0,29.90,SE,134,5.0,7.0,54,0.00,,SKC,0.00,VWS V14.01,2013-06-22 02:54:00,
2013-06-21 21:59:00,81.1,62.9,29.90,SE,130,4.0,6.0,54,0.00,,SKC,0.00,VWS V14.01,2013-06-22 02:59:00,
2013-06-21 22:04:00,80.9,62.7,29.90,ESE,107,9.0,11.0,54,0.00,,SKC,0.00,VWS V14.01,2013-06-22 03:04:00,
2013-06-21 22:09:00,80.7,62.5,29.90,SE,131,7.0,7.0,54,0.00,,SKC,0.00,VWS V14.01,2013-06-22 03:09:00,
2013-06-21 22:14:00,80.5,62.3,29.90,SE,145,6.0,12.0,54,0.00,,SKC,0.00,VWS V14.01,2013-06-22 03:14:00,
2013-06-21 22:20:00,80.4,62.2,29.91,ESE,111,4.0,13.0,54,0.00,,SKC,0.00,VWS V14.01,2013-06-22 03:20:00,
2013-06-21 22:25:00,80.3,62.2,29.91,SSE,159,7.0,8.0,54,0.00,,SKC,0.00,VWS V14.01,2013-06-22 03:25:00,
2013-06-21 22:30:00,80.3,62.2,29.91,SSE,163,6.0,7.0,54,0.00,,SKC,0.00,VWS V14.01,2013-06-22 03:30:00,
2013-06-21 22:35:00,80.2,62.1,29.91,SE,142,7.0,7.0,54,0.00,,SKC,0.00,VWS V14.01,2013-06-22 03:35:00,
2013-06-21 22:40:00,80.0,61.9,29.92,SSE,160,5.0,5.0,54,0.00,,SKC,0.00,VWS V14.01,2013-06-22 03:40:00,
2013-06-21 22:45:00,79.7,62.1,29.92,SE,135,2.0,5.0,55,0.00,,SKC,0.00,VWS V14.01,2013-06-22 03:45:00,
2013-06-21 22:50:00,79.5,61.9,29.92,SE,136,5.0,9.0,55,0.00,,SKC,0.00,VWS V14.01,2013-06-22 03:50:00,
2013-06-21 22:55:00,79.4,62.3,29.92,SSE,152,6.0,7.0,56,0.00,,SKC,0.00,VWS V14.01,2013-06-22 03:55:00,
2013-06-21 23:00:00,79.3,62.8,29.92,SE,146,4.0,10.0,57,0.00,,SKC,0.00,VWS V14.01,2013-06-22 04:00:00,
2013-06-21 23:01:00,79.2,62.7,29.92,South,178,3.0,6.0,57,0.00,,SKC,0.00,VWS V14.01,2013-06-22 04:01:00,
2013-06-21 23:06:00,79.0,63.0,29.92,South,169,5.0,8.0,58,0.00,,SKC,0.00,VWS V14.01,2013-06-22 04:06:00,
2013-06-21 23:11:00,78.7,63.2,29.92,SE,137,6.0,6.0,59,0.00,,SKC,0.00,VWS V14.01,2013-06-22 04:11:00,
2013-06-21 23:16:00,78.7,63.2,29.93,SSE,148,5.0,9.0,59,0.00,,SKC,0.00,VWS V14.01,2013-06-22 04:16:00,
2013-06-21 23:21:00,78.5,63.5,29.93,SSE,155,7.0,9.0,60,0.00,,SKC,0.00,VWS V14.01,2013-06-22 04:21:00,
2013-06-21 23:26:00,78.4,63.4,29.93,SSE,163,7.0,12.0,60,0.00,,SKC,0.00,VWS V14.01,2013-06-22 04:26:00,
2013-06-21 23:31:00,78.3,63.8,29.93,SSE,158,5.0,11.0,61,0.00,,SKC,0.00,VWS V14.01,2013-06-22 04:31:00,
2013-06-21 23:36:00,78.1,64.0,29.93,SSE,157,4.0,10.0,62,0.00,,SKC,0.00,VWS V14.01,2013-06-22 04:36:00,
2013-06-21 23:41:00,77.9,64.3,29.93,SE,136,6.0,13.0,63,0.00,,SKC,0.00,VWS V14.01,2013-06-22 04:41:00,
2013-06-21 23:46:00,77.8,64.2,29.93,South,172,6.0,12.0,63,0.00,,SKC,0.00,VWS V14.01,2013-06-22 04:46:00,
2013-06-21 23:51:00,77.6,64.5,29.93,SE,136,9.0,11.0,64,0.00,,SKC,0.00,VWS V14.01,2013-06-22 04:51:00,
2013-06-21 23:56:00,77.4,64.3,29.93,SSE,165,8.0,14.0,64,0.00,,SKC,0.00,VWS V14.01,2013-06-22 04:56:00,